Time;durP1;ratioP1;P1;durP2;ratioP2;P2;SDS_P1;SDS_P2;PMS_P1;PMS_P2;Temp;Humidity;BMP_temperature;BMP_pressure;BME280_temperature;BME280_humidity;BME280_pressure;Samples;Min_cycle;Max_cycle;Signal;HPM_P1;HPM_P2
2021/03/12 00:01:03;;;;;;;18.27;3.80;;;;;;;5.78;69.84;100265.16;5092499;28;20421;-68
2021/03/12 00:03:31;;;;;;;20.77;4.40;;;;;;;5.66;69.37;100289.47;5092253;28;20059;-68
2021/03/12 00:06:00;;;;;;;22.48;4.45;;;;;;;5.65;70.35;100285.06;5092004;28;20435;-69
2021/03/12 00:08:29;;;;;;;18.58;4.40;;;;;;;5.70;70.42;100293.91;5093238;28;20480;-69
2021/03/12 00:10:55;;;;;;;19.27;4.32;;;;;;;5.68;69.87;100296.50;5094653;28;20530;-68
2021/03/12 00:13:20;;;;;;;20.17;4.88;;;;;;;5.69;69.81;100307.88;5094517;28;20024;-69
2021/03/12 00:15:47;;;;;;;20.85;4.47;;;;;;;5.65;70.32;100311.31;5090797;28;20062;-69
2021/03/12 00:18:14;;;;;;;20.05;4.28;;;;;;;5.67;70.28;100314.84;5092299;28;20080;-68
2021/03/12 00:20:40;;;;;;;19.02;4.15;;;;;;;5.74;68.84;100307.09;5091880;28;20032;-69
2021/03/12 00:23:06;;;;;;;18.65;4.40;;;;;;;5.79;68.60;100325.50;5092163;28;20024;-68
2021/03/12 00:25:36;;;;;;;19.70;4.40;;;;;;;5.81;68.92;100338.66;5091053;28;20184;-68
2021/03/12 00:28:02;;;;;;;21.05;4.40;;;;;;;5.74;69.68;100338.56;5093818;28;20133;-68
2021/03/12 00:30:28;;;;;;;20.35;4.22;;;;;;;5.72;68.69;100334.16;5093153;28;20478;-68
2021/03/12 00:32:53;;;;;;;19.38;4.10;;;;;;;5.72;69.10;100340.28;5091075;28;20043;-68
2021/03/12 00:35:19;;;;;;;19.75;3.90;;;;;;;5.68;69.24;100342.81;5092913;28;20055;-68
2021/03/12 00:37:44;;;;;;;15.65;3.85;;;;;;;5.65;69.43;100337.53;5092585;28;20677;-68
2021/03/12 00:40:11;;;;;;;18.02;3.80;;;;;;;5.55;70.31;100360.13;5091530;28;20039;-68
2021/03/12 00:42:36;;;;;;;17.52;3.50;;;;;;;5.54;70.11;100368.81;5092147;28;20028;-68
2021/03/12 00:45:03;;;;;;;18.90;3.63;;;;;;;5.48;70.26;100363.47;5090267;28;20494;-67
2021/03/12 00:47:28;;;;;;;18.55;3.63;;;;;;;5.48;70.42;100376.59;5092198;28;20023;-69
2021/03/12 00:49:53;;;;;;;17.33;3.42;;;;;;;5.52;69.73;100378.38;5092511;28;20161;-68
2021/03/12 00:52:19;;;;;;;15.82;3.25;;;;;;;5.52;69.32;100387.16;5092599;28;20016;-67
2021/03/12 00:54:44;;;;;;;20.83;3.50;;;;;;;5.48;69.75;100398.44;5072595;28;20068;-67
2021/03/12 00:57:09;;;;;;;15.75;3.25;;;;;;;5.58;69.41;100407.38;5092383;28;20070;-67
2021/03/12 00:59:34;;;;;;;18.48;3.22;;;;;;;5.68;68.42;100390.03;5091522;28;20024;-68
2021/03/12 01:02:00;;;;;;;19.55;3.50;;;;;;;5.47;69.34;100394.03;5092789;28;20024;-68
2021/03/12 01:04:25;;;;;;;17.95;3.47;;;;;;;5.54;68.75;100406.41;5091669;28;20384;-67
2021/03/12 01:06:50;;;;;;;19.85;3.47;;;;;;;5.45;69.76;100408.88;5092027;28;20340;-68
2021/03/12 01:09:16;;;;;;;19.05;3.55;;;;;;;5.50;68.12;100417.69;5090589;28;20098;-67
2021/03/12 01:11:41;;;;;;;19.40;3.53;;;;;;;5.53;67.71;100420.41;5093916;28;20016;-67
2021/03/12 01:14:06;;;;;;;18.35;3.60;;;;;;;5.55;68.38;100417.81;5090924;28;20367;-68
2021/03/12 01:16:32;;;;;;;18.73;3.80;;;;;;;5.49;68.90;100436.00;5070853;28;20485;-69
2021/03/12 01:18:57;;;;;;;20.65;3.70;;;;;;;5.53;68.19;100429.97;5091345;28;20047;-68
2021/03/12 01:21:22;;;;;;;19.30;3.67;;;;;;;5.51;68.48;100443.06;5090936;28;20070;-67
2021/03/12 01:23:49;;;;;;;19.80;3.95;;;;;;;5.49;68.36;100426.44;5092485;28;20107;-68
2021/03/12 01:26:14;;;;;;;19.60;3.97;;;;;;;5.44;68.37;100430.69;5091513;28;20572;-68
2021/03/12 01:28:39;;;;;;;20.00;3.80;;;;;;;5.48;68.97;100422.03;5091797;28;20107;-67
2021/03/12 01:31:05;;;;;;;19.27;3.65;;;;;;;5.44;68.33;100435.06;5091195;28;20065;-69
2021/03/12 01:33:30;;;;;;;17.35;3.90;;;;;;;5.37;68.86;100439.28;5091537;28;20044;-68
2021/03/12 01:35:56;;;;;;;19.67;3.97;;;;;;;5.36;68.83;100440.16;5091097;28;20020;-68
2021/03/12 01:38:21;;;;;;;21.25;3.78;;;;;;;5.36;69.17;100437.56;5092274;28;20021;-67
2021/03/12 01:40:48;;;;;;;16.17;3.58;;;;;;;5.36;69.30;100435.81;5090345;28;20027;-68
2021/03/12 01:43:16;;;;;;;20.17;3.50;;;;;;;5.29;70.08;100446.16;5091090;28;20363;-67
2021/03/12 01:45:43;;;;;;;19.42;3.70;;;;;;;5.20;70.15;100450.34;5089964;28;20544;-67
2021/03/12 01:48:11;;;;;;;20.45;3.28;;;;;;;5.21;69.23;100462.59;5090865;28;20501;-68
2021/03/12 01:50:38;;;;;;;19.85;3.60;;;;;;;5.20;69.45;100460.81;5092448;28;20034;-69
2021/03/12 01:53:15;;;;;;;18.50;3.10;;;;;;;5.19;69.85;100455.56;5091254;28;20036;-68
2021/03/12 01:55:41;;;;;;;16.98;3.40;;;;;;;5.14;69.98;100463.34;5089106;28;20059;-67
2021/03/12 01:58:07;;;;;;;19.95;3.58;;;;;;;5.10;70.01;100457.97;5091691;28;20459;-67
2021/03/12 02:00:33;;;;;;;18.95;3.10;;;;;;;5.03;70.55;100470.94;5091444;28;20039;-68
2021/03/12 02:02:59;;;;;;;22.73;3.40;;;;;;;5.10;69.87;100497.28;5091991;28;20498;-68
2021/03/12 02:05:25;;;;;;;16.98;2.92;;;;;;;4.95;70.51;100480.41;5090506;28;20067;-67
2021/03/12 02:07:50;;;;;;;17.67;3.33;;;;;;;4.87;70.83;100474.97;5088362;28;20030;-67
2021/03/12 02:10:19;;;;;;;17.75;3.08;;;;;;;4.76;71.38;100479.13;5091679;28;20425;-68
2021/03/12 02:12:58;;;;;;;20.08;3.50;;;;;;;4.66;71.49;100478.03;5090633;28;20423;-68
2021/03/12 02:15:27;;;;;;;19.52;3.13;;;;;;;4.62;71.82;100493.63;5088614;28;20027;-68
2021/03/12 02:18:00;;;;;;;19.33;3.17;;;;;;;4.56;71.67;100494.38;5092362;28;20031;-68
2021/03/12 02:20:32;;;;;;;20.13;3.30;;;;;;;4.56;71.89;100483.00;5091656;28;20020;-67
2021/03/12 02:23:26;;;;;;;21.48;3.42;;;;;;;4.54;72.25;100482.97;5094263;28;20101;-68
2021/03/12 02:26:03;;;;;;;17.25;3.25;;;;;;;4.46;72.13;100481.91;5095968;28;20028;-68
2021/03/12 02:28:30;;;;;;;22.35;3.45;;;;;;;4.36;72.19;100486.03;5094830;28;20073;-67
2021/03/12 02:30:57;;;;;;;18.98;3.60;;;;;;;4.41;72.11;100492.25;5093820;28;20398;-67
2021/03/12 02:33:25;;;;;;;17.05;4.10;;;;;;;4.44;72.22;100494.06;5095015;28;20024;-67
2021/03/12 02:35:55;;;;;;;21.13;3.72;;;;;;;4.52;72.37;100503.00;5091677;28;20432;-67
2021/03/12 02:38:26;;;;;;;18.80;3.60;;;;;;;4.52;72.24;100500.38;5095601;28;20027;-67
2021/03/12 02:40:57;;;;;;;19.98;3.80;;;;;;;4.56;72.23;100507.47;5095028;28;20024;-68
2021/03/12 02:43:23;;;;;;;21.77;3.70;;;;;;;4.55;72.34;100500.44;5093304;28;20028;-67
2021/03/12 02:45:49;;;;;;;19.45;3.85;;;;;;;4.56;71.76;100503.94;5094069;28;20035;-68
2021/03/12 02:48:16;;;;;;;20.80;4.18;;;;;;;4.48;72.26;100506.38;5092748;28;20065;-67
2021/03/12 02:50:42;;;;;;;19.20;3.65;;;;;;;4.43;72.69;100519.38;5092837;28;20056;-67
2021/03/12 02:53:08;;;;;;;21.73;4.78;;;;;;;4.34;72.75;100506.06;5094201;28;20051;-68
2021/03/12 02:55:35;;;;;;;21.20;3.97;;;;;;;4.30;73.12;100510.34;5093640;28;20046;-68
2021/03/12 02:58:01;;;;;;;22.52;4.28;;;;;;;4.24;73.16;100510.19;5095330;28;20016;-68
2021/03/12 03:00:27;;;;;;;21.38;4.10;;;;;;;4.11;73.51;100503.75;5093606;28;20020;-68
2021/03/12 03:02:53;;;;;;;20.52;3.75;;;;;;;4.10;73.45;100519.41;5093878;28;20020;-68
2021/03/12 03:05:20;;;;;;;21.25;4.05;;;;;;;4.11;73.14;100523.81;5091667;28;20389;-68
2021/03/12 03:07:49;;;;;;;21.60;4.07;;;;;;;4.06;73.74;100522.78;5095089;28;20024;-67
2021/03/12 03:10:17;;;;;;;20.45;4.22;;;;;;;4.02;73.62;100521.84;5090944;28;20529;-68
2021/03/12 03:12:45;;;;;;;22.00;4.20;;;;;;;3.93;74.03;100530.34;5094224;28;20066;-68
2021/03/12 03:15:10;;;;;;;21.38;4.18;;;;;;;3.91;74.32;100533.75;5093808;28;20383;-68
2021/03/12 03:17:38;;;;;;;21.45;4.35;;;;;;;3.82;74.67;100532.66;5093145;28;20036;-68
2021/03/12 03:20:06;;;;;;;22.52;4.43;;;;;;;3.75;74.81;100535.94;5094555;28;20031;-67
2021/03/12 03:22:32;;;;;;;24.15;4.10;;;;;;;3.67;75.28;100545.34;5092660;28;20034;-68
2021/03/12 03:24:57;;;;;;;20.30;3.90;;;;;;;3.73;75.01;100534.13;5093552;28;20032;-67
2021/03/12 03:27:23;;;;;;;21.63;4.28;;;;;;;3.74;75.04;100534.19;5095099;28;20101;-67
2021/03/12 03:29:48;;;;;;;22.88;4.35;;;;;;;3.65;75.57;100536.53;5092918;28;20028;-68
2021/03/12 03:32:14;;;;;;;19.88;3.88;;;;;;;3.74;75.10;100528.06;5074031;28;20059;-68
2021/03/12 03:34:41;;;;;;;20.25;3.85;;;;;;;3.64;75.22;100532.16;5092750;28;20024;-67
2021/03/12 03:37:07;;;;;;;26.13;4.68;;;;;;;3.71;74.71;100530.59;5077909;28;20047;-68
2021/03/12 03:39:32;;;;;;;22.23;4.40;;;;;;;3.64;75.31;100540.00;5092754;28;20036;-68
2021/03/12 03:42:03;;;;;;;20.77;4.20;;;;;;;3.62;75.42;100533.84;5094263;28;20034;-66
2021/03/12 03:44:31;;;;;;;23.48;4.63;;;;;;;3.61;75.43;100545.13;5090273;28;20032;-68
2021/03/12 03:47:00;;;;;;;20.98;4.00;;;;;;;3.57;75.46;100553.72;5093467;28;20077;-68
2021/03/12 03:49:27;;;;;;;21.77;4.47;;;;;;;3.56;75.71;100549.38;5092835;28;20024;-68
2021/03/12 03:51:54;;;;;;;22.40;4.22;;;;;;;3.49;75.96;100543.97;5093381;28;20035;-68
2021/03/12 03:54:21;;;;;;;22.20;4.10;;;;;;;3.45;76.26;100554.28;5092204;28;20035;-68
2021/03/12 03:56:49;;;;;;;22.73;4.38;;;;;;;3.42;76.20;100569.88;5093998;28;20031;-67
2021/03/12 03:59:15;;;;;;;22.27;4.25;;;;;;;3.44;76.17;100561.22;5093228;28;20081;-67
2021/03/12 04:01:41;;;;;;;20.02;4.75;;;;;;;3.39;76.27;100557.59;5092007;28;20492;-67
2021/03/12 04:04:08;;;;;;;20.08;4.47;;;;;;;3.47;76.14;100558.72;5092850;28;20044;-68
2021/03/12 04:06:35;;;;;;;21.60;4.30;;;;;;;3.39;76.05;100565.44;5091722;28;20023;-67
2021/03/12 04:09:02;;;;;;;21.38;4.38;;;;;;;3.35;76.30;100563.59;5092244;28;20024;-68
2021/03/12 04:11:28;;;;;;;21.77;4.05;;;;;;;3.30;76.52;100559.94;5093386;28;20076;-67
2021/03/12 04:13:55;;;;;;;22.63;4.40;;;;;;;3.37;76.05;100564.50;5074016;28;20131;-67
2021/03/12 04:16:21;;;;;;;21.90;4.35;;;;;;;3.41;75.90;100569.00;5091503;28;20030;-67
2021/03/12 04:18:47;;;;;;;19.90;4.18;;;;;;;3.28;76.30;100569.47;5093264;28;20016;-67
2021/03/12 04:21:13;;;;;;;23.38;4.70;;;;;;;3.24;76.42;100578.06;5093574;28;20020;-67
2021/03/12 04:23:39;;;;;;;23.63;4.57;;;;;;;3.23;76.49;100571.06;5092905;28;20024;-68
2021/03/12 04:26:04;;;;;;;20.70;4.32;;;;;;;3.26;76.19;100577.28;5090935;28;20020;-67
2021/03/12 04:28:30;;;;;;;19.17;4.13;;;;;;;3.26;76.36;100582.50;5093239;28;20051;-68
2021/03/12 04:30:56;;;;;;;22.08;4.43;;;;;;;3.29;75.91;100579.06;5092266;28;20032;-68
2021/03/12 04:33:22;;;;;;;20.95;4.10;;;;;;;3.25;75.92;100585.06;5092883;28;20023;-67
2021/03/12 04:35:47;;;;;;;22.88;4.50;;;;;;;3.23;76.36;100584.13;5092371;28;20024;-67
2021/03/12 04:38:13;;;;;;;21.13;4.30;;;;;;;3.30;76.14;100586.94;5074506;28;20036;-68
2021/03/12 04:40:39;;;;;;;19.10;3.90;;;;;;;3.29;76.11;100595.66;5092758;28;20387;-67
2021/03/12 04:43:07;;;;;;;20.45;3.95;;;;;;;3.29;75.83;100594.75;5091636;28;20136;-67
2021/03/12 04:45:32;;;;;;;21.77;4.10;;;;;;;3.39;75.44;100575.88;5090344;28;20024;-67
2021/03/12 04:47:59;;;;;;;17.55;3.28;;;;;;;3.33;75.57;100585.28;5091849;28;20023;-67
2021/03/12 04:50:26;;;;;;;25.20;4.13;;;;;;;3.24;75.93;100594.63;5092456;28;20089;-67
2021/03/12 04:52:56;;;;;;;21.10;5.00;;;;;;;3.25;75.72;100591.16;5089928;28;20081;-67
2021/03/12 04:55:23;;;;;;;20.80;3.38;;;;;;;3.24;76.17;100589.38;5092427;28;20050;-67
2021/03/12 04:57:49;;;;;;;21.65;3.70;;;;;;;3.17;76.37;100589.16;5091076;28;20047;-67
2021/03/12 05:00:15;;;;;;;20.63;3.60;;;;;;;3.06;76.84;100586.22;5092379;28;20099;-67
2021/03/12 05:02:42;;;;;;;24.10;3.75;;;;;;;3.05;76.86;100601.00;5073534;28;20471;-68
2021/03/12 05:05:10;;;;;;;19.67;3.35;;;;;;;3.11;76.38;100600.31;5090667;28;20119;-68
2021/03/12 05:07:36;;;;;;;17.33;3.10;;;;;;;3.12;76.55;100591.66;5090732;28;20085;-68
2021/03/12 05:10:04;;;;;;;16.95;3.25;;;;;;;3.23;75.73;100605.00;5057669;28;20470;-69
2021/03/12 05:12:30;;;;;;;20.75;3.35;;;;;;;3.13;76.19;100586.47;5091057;28;20023;-68
2021/03/12 05:14:56;;;;;;;22.00;3.42;;;;;;;3.06;76.43;100591.44;5090827;28;20028;-68
2021/03/12 05:17:22;;;;;;;21.52;3.20;;;;;;;3.07;76.35;100599.34;5092601;28;20130;-68
2021/03/12 05:19:48;;;;;;;23.02;3.10;;;;;;;3.00;76.38;100610.44;5091698;28;20020;-68
2021/03/12 05:22:13;;;;;;;18.40;2.97;;;;;;;3.10;76.52;100596.81;5091503;28;20510;-68
2021/03/12 05:24:38;;;;;;;21.38;3.40;;;;;;;3.06;76.71;100600.16;5090484;28;20128;-68
2021/03/12 05:27:04;;;;;;;20.67;3.45;;;;;;;3.19;76.10;100600.53;5091481;28;20027;-68
2021/03/12 05:29:30;;;;;;;21.85;3.50;;;;;;;3.14;76.15;100603.88;5092257;28;20024;-68
2021/03/12 05:31:55;;;;;;;24.33;3.30;;;;;;;3.17;76.22;100612.69;5091399;28;20016;-68
2021/03/12 05:34:21;;;;;;;17.10;2.80;;;;;;;3.14;76.13;100605.63;5091087;28;20021;-68
2021/03/12 05:36:46;;;;;;;18.90;2.90;;;;;;;3.04;76.94;100601.84;5093213;28;20020;-68
2021/03/12 05:39:11;;;;;;;21.75;3.10;;;;;;;3.18;76.51;100609.22;5091114;28;20091;-68
2021/03/12 05:41:38;;;;;;;22.73;3.47;;;;;;;3.22;76.52;100600.63;5091960;28;20015;-67
2021/03/12 05:44:05;;;;;;;21.23;3.33;;;;;;;3.16;76.48;100596.13;5090895;28;20020;-67
2021/03/12 05:46:33;;;;;;;22.48;3.30;;;;;;;3.12;76.96;100602.97;5091173;28;20107;-68
2021/03/12 05:48:59;;;;;;;21.05;3.10;;;;;;;3.16;76.67;100603.97;5090587;28;20030;-68
2021/03/12 05:51:25;;;;;;;23.05;3.50;;;;;;;3.18;77.13;100599.66;5093203;28;20103;-68
2021/03/12 05:53:51;;;;;;;20.25;3.28;;;;;;;3.13;77.08;100601.22;5091231;28;20051;-68
2021/03/12 05:56:17;;;;;;;23.00;3.25;;;;;;;3.16;77.07;100596.13;5094800;28;20525;-68
2021/03/12 05:58:42;;;;;;;21.77;3.33;;;;;;;3.16;76.99;100595.22;5094436;28;20111;-68
2021/03/12 06:01:08;;;;;;;20.83;3.30;;;;;;;3.22;77.02;100595.41;5096165;28;20546;-67
2021/03/12 06:03:33;;;;;;;19.02;3.33;;;;;;;3.27;76.56;100596.44;5094263;28;20501;-68
2021/03/12 06:05:58;;;;;;;22.27;3.55;;;;;;;3.25;76.63;100592.91;5095556;28;20454;-68
2021/03/12 06:08:24;;;;;;;26.15;3.75;;;;;;;3.27;76.84;100599.06;5094958;28;20380;-68
2021/03/12 06:10:50;;;;;;;22.98;3.45;;;;;;;3.29;76.56;100602.59;5096013;28;20043;-68
2021/03/12 06:13:15;;;;;;;23.00;3.30;;;;;;;3.38;76.50;100608.09;5094203;28;20085;-68
2021/03/12 06:15:45;;;;;;;20.30;3.20;;;;;;;3.44;76.19;100597.81;5095183;28;20028;-68
2021/03/12 06:18:21;;;;;;;25.42;3.60;;;;;;;3.44;76.61;100600.44;5094737;28;20046;-68
2021/03/12 06:20:47;;;;;;;23.20;3.13;;;;;;;3.44;76.21;100603.06;5095603;28;20470;-68
2021/03/12 06:23:31;;;;;;;25.38;3.53;;;;;;;3.47;76.56;100600.53;5094114;28;20039;-68
2021/03/12 06:25:57;;;;;;;23.00;3.22;;;;;;;3.54;76.31;100600.69;5092761;28;20028;-68
2021/03/12 06:28:23;;;;;;;21.08;3.03;;;;;;;3.61;75.89;100605.25;5096074;28;20027;-68
2021/03/12 06:30:48;;;;;;;20.77;3.10;;;;;;;3.65;76.20;100605.38;5094945;28;20375;-69
2021/03/12 06:33:26;;;;;;;22.83;3.42;;;;;;;3.75;75.73;100614.38;5095474;28;20104;-67
2021/03/12 06:35:52;;;;;;;22.40;3.35;;;;;;;3.83;75.27;100612.00;5092102;28;20031;-66
2021/03/12 06:38:17;;;;;;;23.75;3.40;;;;;;;3.88;74.97;100609.53;5093733;28;20461;-71
2021/03/12 06:40:43;;;;;;;21.50;3.80;;;;;;;3.84;75.73;100609.44;5095859;28;20419;-68
2021/03/12 06:43:11;;;;;;;22.27;3.35;;;;;;;3.91;75.31;100604.38;5094367;28;20036;-69
2021/03/12 06:45:42;;;;;;;22.25;3.67;;;;;;;3.93;75.31;100618.38;5092645;28;20050;-68
2021/03/12 06:48:15;;;;;;;20.15;3.17;;;;;;;3.97;75.01;100605.41;5093022;28;20032;-68
2021/03/12 06:50:43;;;;;;;;;;;;;;;4.11;74.33;100618.88;5095517;28;20501;-68
2021/03/12 06:53:27;;;;;;;21.38;2.90;;;;;;;4.10;74.61;100613.59;5093893;28;20320;-68
2021/03/12 06:55:53;;;;;;;25.05;3.90;;;;;;;4.07;74.56;100611.78;5090475;28;20051;-68
2021/03/12 06:58:19;;;;;;;22.42;3.53;;;;;;;4.09;74.77;100610.13;5095143;28;20059;-68
2021/03/12 07:00:51;;;;;;;21.58;3.83;;;;;;;4.17;74.59;100608.56;5094519;28;20063;-67
2021/03/12 07:03:22;;;;;;;24.30;3.75;;;;;;;4.16;74.63;100606.78;5063913;28;20039;-66
2021/03/12 07:06:10;;;;;;;15.68;2.80;;;;;;;4.30;74.27;100608.91;5092774;28;20087;-68
2021/03/12 07:08:46;;;;;;;20.58;3.10;;;;;;;4.26;74.03;100601.81;5093425;28;20039;-69
2021/03/12 07:11:20;;;;;;;22.33;3.47;;;;;;;4.35;74.08;100596.81;5093979;28;20380;-70
2021/03/12 07:13:56;;;;;;;22.92;3.20;;;;;;;4.39;74.13;100596.03;5091617;28;20028;-70
2021/03/12 07:16:25;;;;;;;22.02;3.60;;;;;;;4.46;73.87;100600.59;5093278;28;20352;-69
2021/03/12 07:18:52;;;;;;;22.75;3.85;;;;;;;4.53;73.85;100605.13;5090847;28;20024;-70
2021/03/12 07:21:22;;;;;;;24.42;3.90;;;;;;;4.57;73.89;100608.69;5094142;28;20061;-67
2021/03/12 07:23:56;;;;;;;20.63;3.35;;;;;;;4.65;73.37;100596.69;5093476;28;20573;-69
2021/03/12 07:26:21;;;;;;;26.35;4.10;;;;;;;4.65;73.41;100599.31;5091134;28;20024;-70
2021/03/12 07:28:46;;;;;;;24.77;3.83;;;;;;;4.70;73.43;100599.41;5093603;28;20032;-68
2021/03/12 07:31:15;;;;;;;24.75;3.60;;;;;;;4.79;73.18;100604.91;5092899;28;20024;-68
2021/03/12 07:33:44;;;;;;;24.95;3.72;;;;;;;4.80;72.95;100611.88;5075479;28;20119;-69
2021/03/12 07:36:12;;;;;;;19.52;3.70;;;;;;;4.96;72.82;100617.50;5093200;28;20364;-69
2021/03/12 07:38:40;;;;;;;22.58;3.63;;;;;;;4.96;73.21;100586.06;5092011;28;20032;-71
2021/03/12 07:41:06;;;;;;;23.67;3.58;;;;;;;5.06;72.40;100611.63;5096218;28;20039;-66
2021/03/12 07:43:38;;;;;;;27.30;4.00;;;;;;;5.04;73.15;100595.88;5095023;28;20487;-66
2021/03/12 07:46:06;;;;;;;20.25;3.13;;;;;;;5.15;72.38;100605.72;5093637;28;20024;-71
2021/03/12 07:48:32;;;;;;;23.40;4.00;;;;;;;5.06;73.01;100590.66;5096538;28;20386;-64
2021/03/12 07:51:11;;;;;;;24.38;3.83;;;;;;;5.12;73.01;100603.91;5092961;28;20028;-64
2021/03/12 07:53:54;;;;;;;26.35;4.15;;;;;;;5.28;72.52;100601.63;5095224;28;20032;-65
2021/03/12 07:56:45;;;;;;;21.52;3.65;;;;;;;5.38;72.15;100587.88;5092371;28;20123;-63
2021/03/12 07:59:12;;;;;;;20.95;3.90;;;;;;;5.36;72.19;100597.47;4984756;28;20038;-64
2021/03/12 08:01:57;;;;;;;22.70;4.03;;;;;;;5.37;72.55;100607.97;4978886;28;20042;-64
2021/03/12 08:04:33;;;;;;;18.67;3.22;;;;;;;5.45;72.59;100610.75;4977739;28;20555;-64
2021/03/12 08:07:19;;;;;;;23.17;3.63;;;;;;;5.51;71.85;100605.63;4975248;28;20561;-63
2021/03/12 08:09:52;;;;;;;27.92;5.00;;;;;;;5.64;71.70;100600.66;4982463;28;20057;-64
2021/03/12 08:12:38;;;;;;;25.83;4.60;;;;;;;5.74;71.59;100597.38;4980792;28;20137;-64
2021/03/12 08:15:21;;;;;;;25.88;4.38;;;;;;;5.82;71.61;100605.38;4975713;28;20481;-62
2021/03/12 08:17:46;;;;;;;;;;;;;;;5.83;71.67;100605.41;4977453;28;20050;-63
2021/03/12 08:20:36;;;;;;;26.70;3.95;;;;;;;5.90;71.50;100612.53;4978576;28;20262;-64
2021/03/12 08:23:03;;;;;;;26.73;4.03;;;;;;;5.90;71.51;100604.69;4978795;28;20043;-64
2021/03/12 08:25:31;;;;;;;23.77;3.90;;;;;;;6.00;71.18;100608.41;4977862;28;20027;-63
2021/03/12 08:27:59;;;;;;;23.10;4.18;;;;;;;6.15;70.34;100606.94;4976455;28;20077;-63
2021/03/12 08:30:25;;;;;;;27.17;4.60;;;;;;;6.16;70.33;100609.59;4977312;28;20145;-62
2021/03/12 08:32:55;;;;;;;25.15;4.45;;;;;;;6.30;70.75;100598.44;4975666;28;20121;-62
2021/03/12 08:35:33;;;;;;;22.23;3.90;;;;;;;6.34;70.32;100600.28;4997146;28;20106;-63
2021/03/12 08:38:00;;;;;;;23.05;4.53;;;;;;;6.45;69.27;100596.06;5092455;28;20031;-63
2021/03/12 08:40:26;;;;;;;21.85;3.90;;;;;;;6.51;68.92;100596.19;5091283;28;20032;-64
2021/03/12 08:43:03;;;;;;;24.60;4.50;;;;;;;6.34;69.98;100606.41;5092185;28;20035;-64
2021/03/12 08:45:48;;;;;;;19.52;3.58;;;;;;;6.67;68.74;100597.34;5091323;28;20020;-64
2021/03/12 08:48:21;;;;;;;25.33;4.30;;;;;;;6.43;69.28;100593.41;5090703;28;20513;-64
2021/03/12 08:50:49;;;;;;;25.35;5.00;;;;;;;6.47;69.57;100583.88;5090391;28;20023;-64
2021/03/12 08:53:15;;;;;;;20.80;4.28;;;;;;;6.59;68.55;100593.69;5092146;28;20040;-65
2021/03/12 08:55:44;;;;;;;25.95;5.15;;;;;;;6.53;69.07;100591.84;5090102;28;20327;-65
2021/03/12 08:58:16;;;;;;;26.00;5.13;;;;;;;6.60;68.80;100582.34;5092395;28;20025;-65
2021/03/12 09:00:44;;;;;;;24.73;4.28;;;;;;;6.56;68.59;100601.53;5090926;28;20160;-65
2021/03/12 09:03:15;;;;;;;28.30;4.93;;;;;;;6.65;68.84;100585.03;5092426;28;20024;-65
2021/03/12 09:05:41;;;;;;;21.10;3.90;;;;;;;6.75;67.75;100568.56;5090384;28;20039;-64
2021/03/12 09:08:06;;;;;;;26.52;4.28;;;;;;;6.88;67.05;100580.16;5092181;28;20490;-66
2021/03/12 09:10:32;;;;;;;25.27;4.03;;;;;;;7.15;66.76;100579.66;5089584;28;20032;-65
2021/03/12 09:12:57;;;;;;;22.67;3.88;;;;;;;7.29;66.46;100587.72;5091444;28;20028;-65
2021/03/12 09:15:27;;;;;;;24.02;4.10;;;;;;;7.37;65.46;100569.41;5090535;28;20027;-65
2021/03/12 09:17:57;;;;;;;22.52;3.83;;;;;;;7.36;65.13;100557.16;5093558;28;20544;-65
2021/03/12 09:20:25;;;;;;;27.08;4.45;;;;;;;7.19;66.06;100567.44;5091099;28;20111;-69
2021/03/12 09:22:52;;;;;;;23.30;4.03;;;;;;;7.29;65.47;100564.94;5091993;28;20032;-70
2021/03/12 09:25:36;;;;;;;27.05;4.45;;;;;;;7.18;65.57;100560.41;5091230;28;20467;-66
2021/03/12 09:28:10;;;;;;;22.63;4.25;;;;;;;7.06;65.50;100569.00;5090805;28;20073;-68
2021/03/12 09:30:43;;;;;;;21.30;3.85;;;;;;;7.11;65.89;100569.97;5090232;28;20115;-68
2021/03/12 09:33:09;;;;;;;21.90;3.90;;;;;;;7.04;65.96;100568.97;5093827;28;20474;-66
2021/03/12 09:35:41;;;;;;;21.60;4.03;;;;;;;7.13;66.14;100560.34;5095795;28;20016;-67
2021/03/12 09:38:07;;;;;;;25.23;4.22;;;;;;;7.26;65.80;100554.38;5094958;28;20028;-67
2021/03/12 09:40:39;;;;;;;22.52;3.95;;;;;;;7.43;64.77;100551.13;5092731;28;20477;-67
2021/03/12 09:43:06;;;;;;;24.00;4.28;;;;;;;7.57;64.23;100552.16;5096270;28;20032;-68
2021/03/12 09:45:32;;;;;;;24.85;4.22;;;;;;;7.67;64.02;100535.63;5097911;28;20031;-68
2021/03/12 09:47:57;;;;;;;18.48;3.85;;;;;;;7.74;64.16;100523.41;5094940;28;20035;-67
2021/03/12 09:50:24;;;;;;;22.60;4.60;;;;;;;7.64;64.85;100532.94;5096356;28;20069;-67
2021/03/12 09:52:53;;;;;;;24.30;4.97;;;;;;;7.30;64.80;100532.53;5095027;28;20051;-66
2021/03/12 09:55:19;;;;;;;25.38;4.65;;;;;;;7.12;66.13;100522.66;5094767;28;20035;-67
2021/03/12 09:57:45;;;;;;;22.98;4.45;;;;;;;7.24;66.42;100526.31;5094882;28;20051;-67
2021/03/12 10:00:19;;;;;;;26.48;4.60;;;;;;;6.98;66.66;100525.09;5095029;28;20463;-68
2021/03/12 10:02:56;;;;;;;23.17;4.00;;;;;;;7.00;66.40;100513.72;5092458;28;20044;-68
2021/03/12 10:05:23;;;;;;;22.50;4.03;;;;;;;6.90;66.91;100525.84;5093651;28;20043;-69
2021/03/12 10:07:49;;;;;;;22.25;3.80;;;;;;;6.86;66.61;100514.44;5095453;28;20028;-69
2021/03/12 10:10:23;;;;;;;26.88;3.85;;;;;;;6.86;66.70;100527.56;5094379;28;20023;-69
2021/03/12 10:12:51;;;;;;;22.58;3.60;;;;;;;6.76;66.40;100520.41;5096896;28;20020;-64
2021/03/12 10:15:20;;;;;;;22.90;4.30;;;;;;;6.77;66.98;100514.28;5095456;28;20105;-63
2021/03/12 10:17:46;;;;;;;23.50;4.88;;;;;;;6.69;66.71;100502.78;5093818;28;20034;-64
2021/03/12 10:20:31;;;;;;;25.02;4.55;;;;;;;6.62;67.21;100525.44;5095592;28;20028;-64
2021/03/12 10:22:57;;;;;;;22.23;4.40;;;;;;;6.60;67.91;100522.78;5093052;28;20024;-64
2021/03/12 10:25:54;;;;;;;22.75;4.07;;;;;;;6.55;69.51;100499.94;5094937;28;20031;-63
2021/03/12 10:28:20;;;;;;;28.15;4.40;;;;;;;6.23;71.92;100511.72;5088336;28;20150;-64
2021/03/12 10:30:54;;;;;;;25.10;4.88;;;;;;;6.13;72.91;100499.28;5094333;28;20048;-64
2021/03/12 10:33:21;;;;;;;27.20;4.82;;;;;;;6.08;73.15;100493.94;5092143;28;20031;-65
2021/03/12 10:35:49;;;;;;;24.45;4.32;;;;;;;6.15;72.18;100496.69;5094319;28;20028;-64
2021/03/12 10:38:18;;;;;;;24.30;5.05;;;;;;;6.20;70.18;100502.88;5094229;28;20036;-64
2021/03/12 10:40:46;;;;;;;22.23;3.90;;;;;;;6.38;69.84;100500.56;5076958;28;20541;-65
2021/03/12 10:43:24;;;;;;;23.35;4.03;;;;;;;6.46;69.42;100487.56;5093384;28;20028;-64
2021/03/12 10:45:59;;;;;;;25.85;5.18;;;;;;;6.62;67.89;100497.41;5091240;28;20020;-66
2021/03/12 10:48:28;;;;;;;22.25;4.53;;;;;;;6.70;67.13;100488.78;5094569;28;20028;-65
2021/03/12 10:51:04;;;;;;;20.55;4.30;;;;;;;6.88;65.85;100490.81;5093310;28;20386;-64
2021/03/12 10:53:30;;;;;;;28.17;4.80;;;;;;;7.07;65.93;100481.41;5093396;28;20028;-64
2021/03/12 10:56:04;;;;;;;23.42;4.50;;;;;;;7.54;65.63;100477.56;5092058;28;20032;-64
2021/03/12 10:58:32;;;;;;;23.52;4.25;;;;;;;7.98;63.29;100469.22;5092078;28;20364;-64
2021/03/12 11:01:13;;;;;;;20.60;3.83;;;;;;;7.91;62.82;100470.06;5094218;28;20035;-65
2021/03/12 11:03:40;;;;;;;25.73;4.97;;;;;;;7.77;61.97;100469.94;5093564;28;20075;-66
2021/03/12 11:06:06;;;;;;;16.98;3.28;;;;;;;7.87;60.62;100473.53;5090298;28;20040;-67
2021/03/12 11:08:32;;;;;;;20.38;4.32;;;;;;;7.72;62.06;100440.03;5094311;28;20440;-65
2021/03/12 11:10:59;;;;;;;18.88;3.35;;;;;;;7.67;62.48;100445.25;5092394;28;20020;-64
2021/03/12 11:13:25;;;;;;;22.52;3.97;;;;;;;7.60;62.83;100430.28;5094041;28;20035;-64
2021/03/12 11:15:50;;;;;;;22.83;4.45;;;;;;;7.53;62.38;100450.41;5092953;28;20020;-64
2021/03/12 11:18:16;;;;;;;21.40;3.78;;;;;;;7.53;62.40;100447.78;5094067;28;20542;-64
2021/03/12 11:20:41;;;;;;;18.85;3.53;;;;;;;7.54;62.18;100441.63;5095736;28;20023;-64
2021/03/12 11:23:08;;;;;;;17.77;3.33;;;;;;;7.48;62.36;100425.78;5093269;28;20020;-64
2021/03/12 11:25:34;;;;;;;18.77;3.40;;;;;;;7.56;62.71;100432.00;5093723;28;20024;-65
2021/03/12 11:27:59;;;;;;;21.38;3.50;;;;;;;7.46;62.94;100433.66;5093253;28;20047;-64
2021/03/12 11:30:26;;;;;;;20.15;3.30;;;;;;;7.52;62.36;100432.84;5093785;28;20039;-66
2021/03/12 11:32:51;;;;;;;19.73;3.83;;;;;;;7.60;61.84;100423.28;5093382;28;20477;-64